createdAt,value
2023-05-05T00:03:37.855Z,9.57
2023-05-05T00:06:08.372Z,10.70
2023-05-05T00:08:35.416Z,12.15
2023-05-05T00:11:02.722Z,10.98
2023-05-05T00:13:30.257Z,8.68
2023-05-05T00:15:57.662Z,12.00
2023-05-05T00:18:24.588Z,8.98
2023-05-05T00:20:51.804Z,9.77
2023-05-05T00:23:19.986Z,10.05
2023-05-05T00:25:47.241Z,6.97
2023-05-05T00:28:15.429Z,6.75
2023-05-05T00:30:42.634Z,8.18
2023-05-05T00:33:10.853Z,8.90
2023-05-05T00:35:39.527Z,8.73
2023-05-05T00:38:10.929Z,7.90
2023-05-05T00:40:45.288Z,7.57
2023-05-05T00:43:17.210Z,10.82
2023-05-05T00:45:48.619Z,10.25
2023-05-05T00:48:18.828Z,10.70
2023-05-05T00:50:50.495Z,11.15
2023-05-05T00:53:18.747Z,9.38
2023-05-05T00:55:46.928Z,9.07
2023-05-05T00:58:15.608Z,10.02
2023-05-05T01:00:43.340Z,8.25
2023-05-05T01:03:16.751Z,8.82
2023-05-05T01:06:06.508Z,7.60
2023-05-05T01:09:02.765Z,9.98
2023-05-05T01:11:46.987Z,8.95
2023-05-05T01:14:21.482Z,11.80
2023-05-05T01:17:08.372Z,9.15
2023-05-05T01:20:20.892Z,7.22
2023-05-05T01:23:09.815Z,11.25
2023-05-05T01:26:04.721Z,9.25
2023-05-05T01:28:41.859Z,13.57
2023-05-05T01:31:47.434Z,13.25
2023-05-05T01:34:25.430Z,9.10
2023-05-05T01:36:59.216Z,10.50
2023-05-05T01:39:30.460Z,10.82
2023-05-05T01:42:03.191Z,11.60
2023-05-05T01:44:35.032Z,10.65
2023-05-05T01:47:09.135Z,10.43
2023-05-05T01:49:38.623Z,11.07
2023-05-05T01:52:07.410Z,9.98
2023-05-05T01:54:40.096Z,11.95
2023-05-05T01:57:11.431Z,10.63
2023-05-05T01:59:41.503Z,11.98
2023-05-05T02:02:16.021Z,10.75
2023-05-05T02:04:47.023Z,11.70
2023-05-05T02:07:16.776Z,12.02
2023-05-05T02:09:46.423Z,10.43
2023-05-05T02:12:17.491Z,9.45
2023-05-05T02:14:47.442Z,10.75
2023-05-05T02:17:17.192Z,9.63
2023-05-05T02:19:47.979Z,11.02
2023-05-05T02:22:17.358Z,10.68
2023-05-05T02:24:45.114Z,9.70
2023-05-05T02:27:19.752Z,10.88
2023-05-05T02:29:51.132Z,13.00
2023-05-05T02:32:24.545Z,11.05
2023-05-05T02:34:56.557Z,12.20
2023-05-05T02:37:29.726Z,13.40
2023-05-05T02:40:05.087Z,11.23
2023-05-05T02:42:37.949Z,13.27
2023-05-05T02:45:17.767Z,11.38
2023-05-05T02:47:48.098Z,9.88
2023-05-05T02:50:17.347Z,10.05
2023-05-05T02:52:54.794Z,10.20
2023-05-05T02:55:24.173Z,10.90
2023-05-05T02:58:04.281Z,10.45
2023-05-05T03:00:49.657Z,8.98
2023-05-05T03:03:31.816Z,10.25
2023-05-05T03:06:11.390Z,10.95
2023-05-05T03:09:08.059Z,12.23
2023-05-05T03:11:50.022Z,9.73
2023-05-05T03:14:20.061Z,9.68
2023-05-05T03:16:50.197Z,9.30
2023-05-05T03:19:19.264Z,7.90
2023-05-05T03:21:49.705Z,9.50
2023-05-05T03:24:20.242Z,8.25
2023-05-05T03:27:02.559Z,11.57
2023-05-05T03:29:36.833Z,9.00
2023-05-05T03:34:38.358Z,9.88
2023-05-05T03:37:06.622Z,13.52
2023-05-05T03:39:36.711Z,10.82
2023-05-05T03:42:06.369Z,13.35
2023-05-05T03:44:36.692Z,10.68
2023-05-05T03:47:05.908Z,10.57
2023-05-05T03:49:36.886Z,14.07
2023-05-05T03:52:04.896Z,8.45
2023-05-05T03:54:34.042Z,8.65
2023-05-05T03:57:04.743Z,10.30
2023-05-05T04:00:05.287Z,9.18
2023-05-05T04:03:20.934Z,10.63
2023-05-05T04:06:21.525Z,11.88
2023-05-05T04:08:49.312Z,12.35
2023-05-05T04:11:17.616Z,9.85
2023-05-05T04:13:45.694Z,9.75
2023-05-05T04:16:15.982Z,11.30
2023-05-05T04:18:43.790Z,9.10
2023-05-05T04:21:11.561Z,13.90
2023-05-05T04:23:41.765Z,13.80
2023-05-05T04:26:11.770Z,14.98
2023-05-05T04:29:31.583Z,12.63
2023-05-05T04:32:03.663Z,12.30
2023-05-05T04:34:33.862Z,11.60
2023-05-05T04:37:17.284Z,13.68
2023-05-05T04:39:56.880Z,13.93
2023-05-05T04:42:53.202Z,11.20
2023-05-05T04:45:22.683Z,11.63
2023-05-05T04:47:50.308Z,13.65
2023-05-05T04:50:19.747Z,12.73
2023-05-05T04:52:48.154Z,11.98
2023-05-05T04:55:16.110Z,10.80
2023-05-05T04:57:43.537Z,12.00
2023-05-05T05:00:11.784Z,11.95
2023-05-05T05:02:39.809Z,15.88
2023-05-05T05:05:07.683Z,13.38
2023-05-05T05:07:36.549Z,16.30
2023-05-05T05:10:04.671Z,13.57
2023-05-05T05:12:32.674Z,13.02
2023-05-05T05:15:01.476Z,15.20
2023-05-05T05:17:31.052Z,15.68
2023-05-05T05:20:01.770Z,13.35
2023-05-05T05:22:31.820Z,17.58
2023-05-05T05:25:00.020Z,15.23
2023-05-05T05:27:28.400Z,16.77
2023-05-05T05:29:56.959Z,15.13
2023-05-05T05:32:25.060Z,12.05
2023-05-05T05:34:52.062Z,14.60
2023-05-05T05:37:19.995Z,14.65
2023-05-05T05:39:57.007Z,14.77
2023-05-05T05:42:26.846Z,13.80
2023-05-05T05:44:56.808Z,12.00
2023-05-05T05:47:25.207Z,14.27
2023-05-05T05:49:56.158Z,10.07
2023-05-05T05:52:23.706Z,13.57
2023-05-05T05:54:51.278Z,17.08
2023-05-05T05:57:19.323Z,14.27
2023-05-05T06:00:01.620Z,16.42
2023-05-05T06:02:39.330Z,11.18
2023-05-05T06:05:10.702Z,15.65
2023-05-05T06:07:39.582Z,13.50
2023-05-05T06:10:25.180Z,14.98
2023-05-05T06:12:56.209Z,15.68
2023-05-05T06:15:23.337Z,14.73
2023-05-05T06:17:50.103Z,11.55
2023-05-05T06:20:17.196Z,11.18
2023-05-05T06:22:45.342Z,11.70
2023-05-05T06:25:13.071Z,16.70
2023-05-05T06:27:40.630Z,14.38
2023-05-05T06:30:16.563Z,15.32
2023-05-05T06:32:55.278Z,12.13
2023-05-05T06:35:22.817Z,14.02
2023-05-05T06:37:49.735Z,15.10
2023-05-05T06:40:17.159Z,13.80
2023-05-05T06:42:44.507Z,15.82
2023-05-05T06:45:18.110Z,13.38
2023-05-05T06:47:45.046Z,13.80
2023-05-05T06:50:23.731Z,15.88
2023-05-05T06:53:00.432Z,15.32
2023-05-05T06:55:28.941Z,18.40
2023-05-05T06:57:59.333Z,13.50
2023-05-05T07:00:26.481Z,11.52
2023-05-05T07:02:56.631Z,12.70
2023-05-05T07:05:24.120Z,14.52
2023-05-05T07:07:56.027Z,12.05
2023-05-05T07:10:24.068Z,12.20
2023-05-05T07:12:52.606Z,9.18
2023-05-05T07:15:27.327Z,11.52
2023-05-05T07:17:57.085Z,11.88
2023-05-05T07:20:24.402Z,12.50
2023-05-05T07:22:51.822Z,10.63
2023-05-05T07:25:19.188Z,12.57
2023-05-05T07:27:46.312Z,9.63
2023-05-05T07:30:18.076Z,10.32
2023-05-05T07:32:46.075Z,9.25
2023-05-05T07:35:13.187Z,10.25
2023-05-05T07:37:40.577Z,10.88
2023-05-05T07:40:08.157Z,9.88
2023-05-05T07:42:36.612Z,9.63
2023-05-05T07:45:06.006Z,10.55
2023-05-05T07:47:33.167Z,10.77
2023-05-05T07:50:01.721Z,14.73
2023-05-05T07:52:44.101Z,10.40
2023-05-05T07:55:16.516Z,8.65
2023-05-05T07:57:44.019Z,10.50
2023-05-05T08:00:13.732Z,11.93
2023-05-05T08:02:44.440Z,12.07
2023-05-05T08:05:14.210Z,10.75
2023-05-05T08:07:46.384Z,11.52
2023-05-05T08:10:14.664Z,11.73
2023-05-05T08:12:42.120Z,9.93
2023-05-05T08:15:09.867Z,12.35
2023-05-05T08:17:46.361Z,8.25
2023-05-05T08:20:18.703Z,14.85
2023-05-05T08:22:47.768Z,8.13
2023-05-05T08:25:18.618Z,10.35
2023-05-05T08:27:49.285Z,11.27
2023-05-05T08:30:27.067Z,9.50
2023-05-05T08:32:58.784Z,9.85
2023-05-05T08:35:26.315Z,9.10
2023-05-05T08:37:56.036Z,11.70
2023-05-05T08:40:39.583Z,7.28
2023-05-05T08:45:38.937Z,8.52
2023-05-05T08:48:18.954Z,9.23
2023-05-05T08:51:00.780Z,8.55
2023-05-05T08:53:55.846Z,7.55
2023-05-05T08:56:33.621Z,6.07
2023-05-05T08:59:04.732Z,7.53
2023-05-05T09:01:35.736Z,10.57
2023-05-05T09:04:08.278Z,6.80
2023-05-05T09:06:37.380Z,12.90
2023-05-05T09:09:05.265Z,9.40
2023-05-05T09:11:37.534Z,5.28
2023-05-05T09:14:05.205Z,6.45
2023-05-05T09:16:32.516Z,5.00
2023-05-05T09:19:04.525Z,5.70
2023-05-05T09:21:35.302Z,6.80
2023-05-05T09:24:10.870Z,5.18
2023-05-05T09:26:45.713Z,6.28
2023-05-05T09:29:24.262Z,5.60
2023-05-05T09:32:08.723Z,4.55
2023-05-05T09:34:37.243Z,3.60
2023-05-05T09:37:06.118Z,4.75
2023-05-05T09:39:33.596Z,4.35
2023-05-05T09:42:03.584Z,5.55
2023-05-05T09:44:36.607Z,13.07
2023-05-05T09:47:09.336Z,5.63
2023-05-05T09:49:39.761Z,5.75
2023-05-05T09:52:17.825Z,7.13
2023-05-05T09:54:45.533Z,6.63
2023-05-05T09:57:27.621Z,6.45
2023-05-05T09:59:57.977Z,5.93
2023-05-05T10:02:33.608Z,3.55
2023-05-05T10:05:19.212Z,6.43
2023-05-05T10:07:47.932Z,6.78
2023-05-05T10:10:17.849Z,5.43
2023-05-05T10:12:50.197Z,4.82
2023-05-05T10:15:18.116Z,4.32
2023-05-05T10:18:02.455Z,5.50
2023-05-05T10:20:36.487Z,5.60
2023-05-05T10:23:08.333Z,5.32
2023-05-05T10:25:42.680Z,7.35
2023-05-05T10:28:23.276Z,5.65
2023-05-05T10:30:55.828Z,7.32
2023-05-05T10:33:35.934Z,5.50
2023-05-05T10:36:06.616Z,6.15
2023-05-05T10:38:36.341Z,4.57
2023-05-05T10:41:04.597Z,4.55
2023-05-05T10:43:32.188Z,5.90
2023-05-05T10:46:00.836Z,4.32
2023-05-05T10:48:56.970Z,4.65
2023-05-05T10:51:42.556Z,5.38
2023-05-05T10:54:29.421Z,4.13
2023-05-05T10:57:05.327Z,5.30
2023-05-05T10:59:38.928Z,4.13
2023-05-05T11:02:20.096Z,12.48
2023-05-05T11:05:15.338Z,3.60
2023-05-05T11:07:50.028Z,3.50
2023-05-05T11:10:21.194Z,23.00
2023-05-05T11:12:55.202Z,3.65
2023-05-05T11:15:22.444Z,4.70
2023-05-05T11:17:50.673Z,4.40
2023-05-05T11:20:45.416Z,4.13
2023-05-05T11:23:13.419Z,2.90
2023-05-05T11:25:45.564Z,4.88
2023-05-05T11:28:17.548Z,3.55
2023-05-05T11:33:37.875Z,4.10
2023-05-05T11:36:11.877Z,3.15
2023-05-05T11:39:18.474Z,3.80
2023-05-05T11:42:06.586Z,3.33
2023-05-05T11:44:37.911Z,5.28
2023-05-05T11:47:09.106Z,4.10
2023-05-05T11:49:38.443Z,4.90
2023-05-05T11:52:13.839Z,3.53
2023-05-05T11:54:49.257Z,3.40
2023-05-05T11:57:21.435Z,2.53
2023-05-05T12:00:06.653Z,3.10
2023-05-05T12:02:34.721Z,6.45
2023-05-05T12:05:02.873Z,4.93
2023-05-05T12:07:32.200Z,3.85
2023-05-05T12:09:59.732Z,3.50
2023-05-05T12:12:41.155Z,3.67
2023-05-05T12:15:09.732Z,4.32
2023-05-05T12:17:43.972Z,4.10
2023-05-05T12:20:13.613Z,3.88
2023-05-05T12:22:41.466Z,3.70
2023-05-05T12:25:09.051Z,3.15
2023-05-05T12:27:37.214Z,4.20
2023-05-05T12:30:13.732Z,5.13
2023-05-05T12:32:41.150Z,3.35
2023-05-05T12:35:09.815Z,2.83
2023-05-05T12:37:38.003Z,4.20
2023-05-05T12:40:06.612Z,2.90
2023-05-05T12:42:41.083Z,3.22
2023-05-05T12:45:17.873Z,3.70
2023-05-05T12:47:45.505Z,3.22
2023-05-05T12:50:12.652Z,5.70
2023-05-05T12:52:46.154Z,3.67
2023-05-05T12:55:13.516Z,3.88
2023-05-05T12:58:04.693Z,2.80
2023-05-05T13:00:32.594Z,3.35
2023-05-05T13:03:00.028Z,3.45
2023-05-05T13:05:41.772Z,4.07
2023-05-05T13:08:09.714Z,4.55
2023-05-05T13:10:40.448Z,3.53
2023-05-05T13:13:10.861Z,3.00
2023-05-05T13:15:39.958Z,6.63
2023-05-05T13:18:09.108Z,5.25
2023-05-05T13:20:38.107Z,5.30
2023-05-05T13:23:13.029Z,3.78
2023-05-05T13:25:41.612Z,3.17
2023-05-05T13:28:10.250Z,5.63
2023-05-05T13:30:40.690Z,3.00
2023-05-05T13:33:09.400Z,3.30
2023-05-05T13:35:39.709Z,3.08
2023-05-05T13:38:07.309Z,5.15
2023-05-05T13:40:37.816Z,3.63
2023-05-05T13:43:06.083Z,3.10
2023-05-05T13:45:34.086Z,4.40
2023-05-05T13:48:04.679Z,3.88
2023-05-05T13:50:32.938Z,3.45
2023-05-05T13:53:03.995Z,3.28
2023-05-05T13:55:35.690Z,3.00
2023-05-05T13:58:06.783Z,5.15
2023-05-05T14:00:36.840Z,3.63
2023-05-05T14:03:06.588Z,3.95
2023-05-05T14:05:42.784Z,3.08
2023-05-05T14:08:13.737Z,3.60
2023-05-05T14:10:42.376Z,3.60
2023-05-05T14:13:11.357Z,3.83
2023-05-05T14:15:42.742Z,4.55
2023-05-05T14:20:50.837Z,2.85
2023-05-05T14:23:20.086Z,2.83
2023-05-05T14:25:49.863Z,4.45
2023-05-05T14:28:21.212Z,3.97
2023-05-05T14:30:50.307Z,4.85
2023-05-05T14:33:19.659Z,3.05
2023-05-05T14:35:48.509Z,2.92
2023-05-05T14:38:19.652Z,3.85
2023-05-05T14:43:35.384Z,4.85
2023-05-05T14:46:14.569Z,3.38
2023-05-05T14:48:49.319Z,3.95
2023-05-05T14:51:18.509Z,2.78
2023-05-05T14:53:46.789Z,4.22
2023-05-05T14:56:17.786Z,5.28
2023-05-05T14:58:50.686Z,3.00
2023-05-05T15:01:21.016Z,3.92
2023-05-05T15:03:48.789Z,3.53
2023-05-05T15:06:17.644Z,5.93
2023-05-05T15:08:48.076Z,4.63
2023-05-05T15:11:23.425Z,5.55
2023-05-05T15:13:51.945Z,3.28
2023-05-05T15:16:31.379Z,3.17
2023-05-05T15:19:22.449Z,5.50
2023-05-05T15:21:54.717Z,2.70
2023-05-05T15:24:26.896Z,2.85
2023-05-05T15:26:56.097Z,3.08
2023-05-05T15:29:25.700Z,3.90
2023-05-05T15:31:53.877Z,5.47
2023-05-05T15:34:21.852Z,5.15
2023-05-05T15:36:51.869Z,5.15
2023-05-05T15:39:22.938Z,2.90
2023-05-05T15:42:06.777Z,6.40
2023-05-05T15:47:12.569Z,3.28
2023-05-05T15:49:44.693Z,3.10
2023-05-05T15:52:15.663Z,3.50
2023-05-05T15:54:45.539Z,3.35
2023-05-05T15:57:20.865Z,4.32
2023-05-05T15:59:55.756Z,5.60
2023-05-05T16:02:27.569Z,4.10
2023-05-05T16:05:06.310Z,4.38
2023-05-05T16:07:37.928Z,4.32
2023-05-05T16:10:12.276Z,3.85
2023-05-05T16:12:41.946Z,5.20
2023-05-05T16:15:12.532Z,3.20
2023-05-05T16:17:41.189Z,4.32
2023-05-05T16:20:09.742Z,6.07
2023-05-05T16:22:38.657Z,5.88
2023-05-05T16:25:07.797Z,3.72
2023-05-05T16:27:37.677Z,7.32
2023-05-05T16:30:06.531Z,3.15
2023-05-05T16:32:42.921Z,5.22
2023-05-05T16:35:13.162Z,3.67
2023-05-05T16:37:49.731Z,4.00
2023-05-05T16:40:19.631Z,4.18
2023-05-05T16:42:47.571Z,3.72
2023-05-05T16:45:17.944Z,4.93
2023-05-05T16:47:57.922Z,5.63
2023-05-05T16:50:26.922Z,4.93
2023-05-05T16:52:54.701Z,4.65
2023-05-05T16:55:26.308Z,3.25
2023-05-05T16:57:54.601Z,6.25
2023-05-05T17:00:27.641Z,3.78
2023-05-05T17:02:57.736Z,4.53
2023-05-05T17:05:26.439Z,4.85
2023-05-05T17:07:54.686Z,4.22
2023-05-05T17:10:26.308Z,4.80
2023-05-05T17:12:56.284Z,4.03
2023-05-05T17:15:24.942Z,4.80
2023-05-05T17:17:54.183Z,6.45
2023-05-05T17:20:24.196Z,4.32
2023-05-05T17:23:01.661Z,5.10
2023-05-05T17:25:30.895Z,5.00
2023-05-05T17:28:11.325Z,4.53
2023-05-05T17:30:39.930Z,3.30
2023-05-05T17:33:08.908Z,4.40
2023-05-05T17:35:39.207Z,3.72
2023-05-05T17:38:07.908Z,5.80
2023-05-05T17:40:39.760Z,4.72
2023-05-05T17:43:10.156Z,5.15
2023-05-05T17:45:38.970Z,5.18
2023-05-05T17:48:07.653Z,4.75
2023-05-05T17:50:37.346Z,5.00
2023-05-05T17:53:06.148Z,4.80
2023-05-05T17:55:36.836Z,3.65
2023-05-05T17:58:04.554Z,4.53
2023-05-05T18:00:33.127Z,4.53
2023-05-05T18:03:06.265Z,5.15
2023-05-05T18:05:39.347Z,5.63
2023-05-05T18:08:09.709Z,13.13
2023-05-05T18:10:50.255Z,5.05
2023-05-05T18:13:22.259Z,6.43
2023-05-05T18:15:53.768Z,7.93
2023-05-05T18:18:27.189Z,6.03
2023-05-05T18:20:58.604Z,6.25
2023-05-05T18:23:27.920Z,6.93
2023-05-05T18:25:59.669Z,6.28
2023-05-05T18:28:30.517Z,5.50
2023-05-05T18:31:00.239Z,18.27
2023-05-05T18:33:47.558Z,8.63
2023-05-05T18:36:21.441Z,7.53
2023-05-05T18:38:52.634Z,6.78
2023-05-05T18:41:29.562Z,9.15
2023-05-05T18:43:58.610Z,8.70
2023-05-05T18:46:28.776Z,5.53
2023-05-05T18:48:59.360Z,8.13
2023-05-05T18:51:28.901Z,4.80
2023-05-05T18:54:01.705Z,7.10
2023-05-05T18:56:30.888Z,5.80
2023-05-05T18:59:01.079Z,5.95
2023-05-05T19:01:29.923Z,5.43
2023-05-05T19:04:02.175Z,7.55
2023-05-05T19:06:32.201Z,6.82
2023-05-05T19:09:01.744Z,6.60
2023-05-05T19:11:30.169Z,6.30
2023-05-05T19:13:59.857Z,4.63
2023-05-05T19:16:32.684Z,5.28
2023-05-05T19:19:01.722Z,5.75
2023-05-05T19:21:33.804Z,4.85
2023-05-05T19:24:13.275Z,5.80
2023-05-05T19:26:47.492Z,4.95
2023-05-05T19:29:19.062Z,7.03
2023-05-05T19:31:47.987Z,7.28
2023-05-05T19:34:26.872Z,6.35
2023-05-05T19:37:00.388Z,5.68
2023-05-05T19:39:28.970Z,6.50
2023-05-05T19:42:03.600Z,5.70
2023-05-05T19:44:31.888Z,6.15
2023-05-05T19:47:00.490Z,4.43
2023-05-05T19:49:29.437Z,4.45
2023-05-05T19:51:59.158Z,5.43
2023-05-05T19:54:27.450Z,7.57
2023-05-05T19:57:02.796Z,5.03
2023-05-05T19:59:31.862Z,4.57
2023-05-05T20:02:00.970Z,6.68
2023-05-05T20:04:28.654Z,5.13
2023-05-05T20:07:00.704Z,5.90
2023-05-05T20:09:30.985Z,6.25
2023-05-05T20:12:07.500Z,6.60
2023-05-05T20:14:36.329Z,5.25
2023-05-05T20:17:06.530Z,4.97
2023-05-05T20:19:34.380Z,5.95
2023-05-05T20:22:05.304Z,5.82
2023-05-05T20:24:34.000Z,8.55
2023-05-05T20:27:07.560Z,4.57
2023-05-05T20:29:38.169Z,5.15
2023-05-05T20:32:08.391Z,4.10
2023-05-05T20:34:36.795Z,6.15
2023-05-05T20:37:04.755Z,7.80
2023-05-05T20:39:32.025Z,4.70
2023-05-05T20:42:01.942Z,5.30
2023-05-05T20:44:30.176Z,4.80
2023-05-05T20:46:58.443Z,4.88
2023-05-05T20:49:26.382Z,5.10
2023-05-05T20:51:54.966Z,7.80
2023-05-05T20:54:26.253Z,6.07
2023-05-05T20:56:58.765Z,5.65
2023-05-05T20:59:29.615Z,5.90
2023-05-05T21:01:58.740Z,5.18
2023-05-05T21:04:27.504Z,6.07
2023-05-05T21:06:54.963Z,6.25
2023-05-05T21:09:24.626Z,5.15
2023-05-05T21:11:52.072Z,5.22
2023-05-05T21:14:19.352Z,5.43
2023-05-05T21:16:46.635Z,5.40
2023-05-05T21:19:13.845Z,6.32
2023-05-05T21:21:41.206Z,4.78
2023-05-05T21:24:09.049Z,5.57
2023-05-05T21:26:40.915Z,7.03
2023-05-05T21:29:09.340Z,6.10
2023-05-05T21:31:38.586Z,6.55
2023-05-05T21:34:06.055Z,4.80
2023-05-05T21:36:34.189Z,5.90
2023-05-05T21:39:06.964Z,8.15
2023-05-05T21:41:36.812Z,4.95
2023-05-05T21:44:06.627Z,5.03
2023-05-05T21:46:34.483Z,5.95
2023-05-05T21:49:15.368Z,4.75
2023-05-05T21:51:45.910Z,5.75
2023-05-05T21:54:13.555Z,5.55
2023-05-05T21:56:40.835Z,4.85
2023-05-05T21:59:09.077Z,4.93
2023-05-05T22:01:37.980Z,5.75
2023-05-05T22:04:05.637Z,6.38
2023-05-05T22:06:39.428Z,5.25
2023-05-05T22:09:07.792Z,4.45
2023-05-05T22:11:37.531Z,5.63
2023-05-05T22:14:07.032Z,5.32
2023-05-05T22:16:34.330Z,5.82
2023-05-05T22:19:02.033Z,5.75
2023-05-05T22:21:29.379Z,5.18
2023-05-05T22:23:58.034Z,7.68
2023-05-05T22:26:26.040Z,6.95
2023-05-05T22:28:53.676Z,6.10
2023-05-05T22:31:21.492Z,5.43
2023-05-05T22:33:48.745Z,6.53
2023-05-05T22:36:17.747Z,5.50
2023-05-05T22:38:45.163Z,6.45
2023-05-05T22:41:12.658Z,5.63
2023-05-05T22:43:40.536Z,7.30
2023-05-05T22:46:07.757Z,5.88
2023-05-05T22:48:35.029Z,7.22
2023-05-05T22:51:03.770Z,5.75
2023-05-05T22:53:30.779Z,7.10
2023-05-05T22:55:59.639Z,5.63
2023-05-05T22:58:29.759Z,7.80
2023-05-05T23:00:57.988Z,6.15
2023-05-05T23:03:25.749Z,5.72
2023-05-05T23:05:52.926Z,6.15
2023-05-05T23:08:20.896Z,7.28
2023-05-05T23:10:48.185Z,5.93
2023-05-05T23:13:15.205Z,7.43
2023-05-05T23:15:43.957Z,6.20
2023-05-05T23:18:11.557Z,6.25
2023-05-05T23:20:39.309Z,6.25
2023-05-05T23:23:07.037Z,7.68
2023-05-05T23:25:34.486Z,8.07
2023-05-05T23:28:02.309Z,7.53
2023-05-05T23:30:29.796Z,8.50
2023-05-05T23:32:58.313Z,7.93
2023-05-05T23:35:26.426Z,6.45
2023-05-05T23:37:53.882Z,7.28
2023-05-05T23:40:21.518Z,6.40
2023-05-05T23:42:49.419Z,8.27
2023-05-05T23:45:19.480Z,7.82
2023-05-05T23:47:47.217Z,9.93
2023-05-05T23:50:14.505Z,9.25
2023-05-05T23:52:42.372Z,7.55
2023-05-05T23:55:11.036Z,8.57
2023-05-05T23:57:39.375Z,8.48
